Flight Track Log - Related Links

Times and Time Zones

All times are in EDT time to prevent confusion due to time zone crossing. See the N724AE flight status page for this flight to view local times or setup timezone preferences in your user account.

Time Position Orientation Groundspeed Altitude Reporting Facility
EDT Latitude Longitude Course Direction KTS MPH feet Rate Location/Type
Fri 07:57:42 PM 32.9333 -97.0333 90° East 172 198 2,100  Level Dallas / Fort Worth TRACON
Fri 07:58:42 PM 32.9833 -97.0167 16° North 247 284 4,400 2,406 Climbing Dallas / Fort Worth TRACON
Fri 07:59:00 PM 32.6858 -96.7704 77° East  Level FlightAware Approximate
Fri 08:00:00 PM 32.7143 -96.6183 77° East  Level FlightAware Approximate
Fri 08:01:00 PM 32.7377 -96.4652 84° East  Level FlightAware Approximate
Fri 08:01:04 PM 32.9781 -96.8192 92° East 261 300 10,200  Level Fort Worth Center
Fri 08:02:00 PM 32.7500 -96.3101 90° East  Level FlightAware Approximate
Fri 08:02:04 PM 32.9358 -96.7303 119° Southeast 319 367 11,600  Level Fort Worth Center
Fri 08:03:04 PM 32.8831 -96.6094 117° Southeast 362 417 13,300 1,650 Climbing Fort Worth Center
Fri 08:04:04 PM 32.8656 -96.4836 99° East 374 430 14,900 1,550 Climbing Fort Worth Center
Fri 08:05:04 PM 32.8539 -96.3575 96° East 387 445 16,400 1,450 Climbing Fort Worth Center
Fri 08:06:04 PM 32.8425 -96.2242 96° East 393 452 17,800 1,400 Climbing Fort Worth Center
Fri 08:07:04 PM 32.8328 -96.0931 95° East 400 460 19,200 1,563 Climbing Fort Worth Center
Fri 08:08:03 PM 32.8208 -95.9575 96° East 405 466 20,900 1,550 Climbing Fort Worth Center
Fri 08:09:04 PM 32.8089 -95.8242 96° East 405 466 22,300 1,488 Climbing Fort Worth Center
Fri 08:10:04 PM 32.7964 -95.6833 96° East 411 473 23,900 1,550 Climbing Fort Worth Center
Fri 08:11:04 PM 32.7861 -95.5453 95° East 417 480 25,400 1,500 Climbing Fort Worth Center
Fri 08:12:04 PM 32.7736 -95.4097 96° East 417 480 26,900 1,400 Climbing Fort Worth Center
Fri 08:13:04 PM 32.7592 -95.2989 99° East 423 487 28,200 1,050 Climbing Fort Worth Center
Fri 08:14:04 PM 32.7442 -95.1436 97° East 423 487 29,000 400 Climbing Fort Worth Center
Fri 08:15:04 PM 32.7286 -94.9933 97° East 435 501 29,000 500 Level Fort Worth Center
Fri 08:16:04 PM 32.7131 -94.8358 97° East 462 532 30,000 1,000 Climbing Fort Worth Center
Fri 08:17:04 PM 32.6869 -94.6808 101° East 474 545 31,000 800 Climbing Fort Worth Center
Fri 08:18:04 PM 32.6542 -94.5217 104° East 487 560 31,600 1,008 Climbing Fort Worth Center
Fri 08:19:03 PM 32.6231 -94.3597 103° East 492 566 33,000 750 Climbing Fort Worth Center
Fri 08:20:04 PM 32.5900 -94.1983 104° East 498 573 33,100 645 Climbing Fort Worth Center
Fri 08:21:04 PM 32.5564 -94.0342 104° East 503 579 34,300 958 Climbing Fort Worth Center
Fri 08:22:03 PM 32.5247 -93.8703 103° East 503 579 35,000 450 Climbing Fort Worth Center
Fri 08:23:04 PM 32.4908 -93.7042 104° East 508 585 35,200 694 Climbing Fort Worth Center
Fri 08:24:04 PM 32.4586 -93.5381 103° East 508 585 36,400 908 Climbing Fort Worth Center
Fri 08:25:03 PM 32.4217 -93.3625 104° East 508 585 37,000 300 Climbing Fort Worth Center
Fri 08:26:04 PM 32.3869 -93.1969 104° East 508 585 37,000  Level Fort Worth Center
Fri 08:27:04 PM 32.3594 -93.0581 103° East 502 578 37,000  Level Fort Worth Center
Fri 08:28:04 PM 32.3242 -92.8925 104° East 500 575 37,000  Level Fort Worth Center
Fri 08:28:24 PM 32.3086 -92.8336 107° East 514 592 37,000  Level Houston Center
Fri 08:29:26 PM 32.2736 -92.6683 104° East 516 594 37,000  Level Houston Center
Fri 08:30:28 PM 32.2381 -92.4989 104° East 521 600 37,000  Level Houston Center
Fri 08:31:30 PM 32.2008 -92.3319 105° East 524 603 37,000  Level Houston Center
Fri 08:32:31 PM 32.1656 -92.1647 104° East 526 605 37,000  Level Houston Center
Fri 08:33:33 PM 32.1197 -91.9603 105° East 533 613 37,000  Level Houston Center
Fri 08:34:35 PM 32.0814 -91.7914 105° East 533 613 37,000  Level Houston Center
Fri 08:35:36 PM 32.0442 -91.6231 105° East 531 611 37,000  Level Houston Center
Fri 08:36:38 PM 32.0061 -91.4550 105° East 530 610 37,000  Level Houston Center
Fri 08:37:40 PM 31.9669 -91.2853 105° East 533 613 37,000  Level Houston Center
Fri 08:38:42 PM 31.9283 -91.1167 105° East 533 613 37,000  Level Houston Center
Fri 08:39:43 PM 31.8908 -90.9483 105° East 532 612 37,000  Level Houston Center
Fri 08:40:45 PM 31.8514 -90.7806 105° East 523 602 37,000  Level Houston Center
Fri 08:41:47 PM 31.8133 -90.6147 105° East 525 604 37,000  Level Houston Center
Fri 08:42:48 PM 31.7667 -90.4178 106° East 521 600 37,000  Level Houston Center
Fri 08:43:50 PM 31.7275 -90.2522 106° East 525 604 37,000  Level Houston Center
Fri 08:44:52 PM 31.6889 -90.0886 105° East 521 600 37,000  Level Houston Center
Fri 08:45:53 PM 31.6500 -89.9242 105° East 521 600 37,000  Level Houston Center
Fri 08:46:55 PM 31.6100 -89.7600 106° East 521 600 37,000  Level Houston Center
Fri 08:47:57 PM 31.5703 -89.5928 106° East 529 609 37,000  Level Houston Center
Fri 08:48:58 PM 31.5269 -89.4156 106° East 531 611 37,000  Level Houston Center
Fri 08:50:00 PM 31.4872 -89.2500 106° East 529 609 37,000  Level Houston Center
Fri 08:51:01 PM 31.4458 -89.0839 106° East 530 610 37,000  Level Houston Center
Fri 08:52:03 PM 31.4050 -88.9183 106° East 530 610 37,000  Level Houston Center
Fri 08:53:05 PM 31.3625 -88.7508 107° East 533 613 37,000  Level Houston Center
Fri 08:54:06 PM 31.3150 -88.5569 106° East 516 594 37,000  Level Houston Center
Fri 08:55:08 PM 31.2742 -88.3956 106° East 514 592 37,000  Level Houston Center
Fri 08:56:09 PM 31.2333 -88.2333 106° East 512 589 37,000  Level Houston Center
Fri 08:57:11 PM 31.1936 -88.0853 107° East 514 592 37,000  Level Houston Center
Fri 08:58:12 PM 31.1544 -87.9258 106° East 515 593 37,000 -49 Level Houston Center
Fri 08:59:14 PM 31.1131 -87.7675 107° East 512 589 36,900  Descending Houston Center
Fri 09:00:16 PM 31.0675 -87.5906 107° East 509 586 37,000 67 Climbing Houston Center
Fri 09:00:43 PM 31.0508 -87.5239 106° East 504 580 37,000  Level Jacksonville Center
Fri 09:01:43 PM 31.0083 -87.3642 107° East 504 580 37,000  Level Jacksonville Center
Fri 09:02:43 PM 30.9506 -87.2236 116° Southeast 504 580 37,000  Level Jacksonville Center
Fri 09:03:43 PM 30.8758 -87.0894 123° Southeast 490 564 37,000  Level Jacksonville Center
Fri 09:04:44 PM 30.8053 -86.9508 121° Southeast 495 570 37,000  Level Jacksonville Center
Fri 09:05:43 PM 30.7322 -86.8172 122° Southeast 495 570 37,000  Level Jacksonville Center
Fri 09:06:43 PM 30.6611 -86.6814 121° Southeast 495 570 37,000  Level Jacksonville Center
Fri 09:07:43 PM 30.5878 -86.5458 122° Southeast 495 570 37,000  Level Jacksonville Center
Fri 09:08:43 PM 30.5186 -86.4106 121° Southeast 490 564 37,000 -50 Level Jacksonville Center
Fri 09:09:43 PM 30.4450 -86.2731 122° Southeast 490 564 36,900  Descending Jacksonville Center
Fri 09:10:43 PM 30.3733 -86.1381 122° Southeast 490 564 37,000 50 Climbing Jacksonville Center
Fri 09:11:44 PM 30.2994 -86.0033 122° Southeast 490 564 37,000  Level Jacksonville Center
Fri 09:12:43 PM 30.2297 -85.8711 121° Southeast 484 557 37,000 -303 Level Jacksonville Center
Fri 09:13:43 PM 30.1556 -85.7367 123° Southeast 484 557 36,400 -1,140 Descending Jacksonville Center
Fri 09:14:44 PM 30.0894 -85.6075 121° Southeast 484 557 34,700 -2,200 Descending Jacksonville Center
Fri 09:15:43 PM 30.0886 -85.4394 90° East 484 557 32,000 -11,950 Descending Jacksonville Center
Fri 09:16:43 PM 30.1439 -85.2825 68° East 484 557 11,000 -3,000 Descending Jacksonville Center
Fri 09:17:43 PM 30.1883 -85.1297 71° East 484 557 26,000 6,000 Climbing Jacksonville Center
Fri 09:18:44 PM 30.2286 -84.9744 73° East 491 565 23,100 -2,750 Descending Jacksonville Center
Fri 09:19:43 PM 30.2686 -84.8311 72° East 483 556 20,500 -2,672 Descending Jacksonville Center
Fri 09:20:43 PM 30.2914 -84.6919 79° East 462 532 17,800 -2,750 Descending Jacksonville Center
Fri 09:21:43 PM 30.3036 -84.5600 84° East 431 496 15,000 -2,800 Descending Jacksonville Center
Fri 09:22:43 PM 30.3156 -84.4325 84° East 407 468 12,200 -2,400 Descending Jacksonville Center
Fri 09:23:43 PM 30.3275 -84.3197 83° East 380 437 10,200 -2,450 Descending Jacksonville Center
Fri 09:24:43 PM 30.3389 -84.2211 82° East 339 390 7,300 -2,975 Descending Jacksonville Center
Fri 09:25:44 PM 30.3525 -84.1178 81° East 302 348 4,200 -1,934 Descending Jacksonville Center
Fri 09:26:44 PM 30.4025 -84.1256 352° North 137 158 3,400 -800 Descending Jacksonville Center

Login

Don't have an account? Register now (free) for customized features, flight alerts, and more!